Time;durP1;ratioP1;P1;durP2;ratioP2;P2;SDS_P1;SDS_P2;PMS_P1;PMS_P2;Temp;Humidity;BMP_temperature;BMP_pressure;BME280_temperature;BME280_humidity;BME280_pressure;Samples;Min_cycle;Max_cycle;Signal;HPM_P1;HPM_P2
2021/08/20 00:00:54;;;;;;;40.53;28.83;;;15.70;99.90;;;;;;12520431;28;20064;-44
2021/08/20 00:06:57;;;;;;;39.25;29.23;;;15.80;99.90;;;;;;12521576;28;20128;-45
2021/08/20 00:12:59;;;;;;;44.33;29.95;;;15.70;99.90;;;;;;12519263;28;20051;-44
2021/08/20 00:19:01;;;;;;;45.15;29.95;;;15.70;99.90;;;;;;12525249;28;20049;-44
2021/08/20 00:25:07;;;;;;;44.13;30.67;;;15.60;99.90;;;;;;12506100;28;20088;-44
2021/08/20 00:31:10;;;;;;;44.58;28.88;;;15.50;99.90;;;;;;12524737;28;20489;-44
2021/08/20 00:37:14;;;;;;;45.63;29.55;;;15.60;99.90;;;;;;12520367;28;20075;-45
2021/08/20 00:43:25;;;;;;;40.25;30.15;;;15.50;99.90;;;;;;12515728;28;20048;-45
2021/08/20 00:49:27;;;;;;;42.90;27.90;;;15.50;99.90;;;;;;12495904;28;20080;-44
2021/08/20 00:55:29;;;;;;;39.38;26.88;;;15.50;99.90;;;;;;12513302;28;20100;-47
2021/08/20 01:01:34;;;;;;;35.55;27.25;;;15.50;99.90;;;;;;12514542;28;20514;-45
2021/08/20 01:07:37;;;;;;;40.53;27.73;;;15.50;99.90;;;;;;12514825;28;20113;-44
2021/08/20 01:13:42;;;;;;;33.05;26.30;;;15.50;99.90;;;;;;12516137;28;20045;-46
2021/08/20 01:19:50;;;;;;;34.60;26.27;;;15.60;99.90;;;;;;12509569;28;20083;-44
2021/08/20 01:25:52;;;;;;;37.83;26.13;;;15.60;99.90;;;;;;12514381;28;20074;-45
2021/08/20 01:31:58;;;;;;;36.45;25.30;;;15.50;99.90;;;;;;12496115;28;20052;-45
2021/08/20 01:38:01;;;;;;;34.83;26.17;;;15.40;99.90;;;;;;12525588;28;20462;-44
2021/08/20 01:44:07;;;;;;;35.70;25.58;;;15.30;99.90;;;;;;12528127;28;20085;-46
2021/08/20 01:50:14;;;;;;;36.53;25.95;;;15.30;99.90;;;;;;12512332;28;20400;-47
2021/08/20 01:56:33;;;;;;;35.85;26.50;;;15.30;99.90;;;;;;12530423;28;20140;-46
2021/08/20 02:02:35;;;;;;;33.55;25.85;;;15.30;99.90;;;;;;12555329;28;20151;-45
2021/08/20 02:08:37;;;;;;;34.13;26.08;;;15.40;99.90;;;;;;12532474;28;20052;-44
2021/08/20 02:14:39;;;;;;;32.53;24.15;;;15.30;99.90;;;;;;12526141;28;20126;-45
2021/08/20 02:20:41;;;;;;;34.03;24.55;;;15.20;99.90;;;;;;12532477;28;20045;-44
2021/08/20 02:26:49;;;;;;;34.42;23.13;;;15.30;99.90;;;;;;12524189;28;20037;-44
2021/08/20 02:32:51;;;;;;;32.10;22.75;;;15.30;99.90;;;;;;12548196;28;20085;-44
2021/08/20 02:38:56;;;;;;;34.92;25.05;;;15.20;99.90;;;;;;12576605;28;20048;-44
2021/08/20 02:45:00;;;;;;;31.45;24.15;;;15.20;99.90;;;;;;12554106;28;20036;-45
2021/08/20 02:51:02;;;;;;;32.58;24.27;;;15.20;99.90;;;;;;12573547;28;20115;-48
2021/08/20 02:57:05;;;;;;;32.38;23.63;;;15.10;99.90;;;;;;12573973;28;20518;-46
2021/08/20 03:03:14;;;;;;;33.92;23.42;;;15.10;99.90;;;;;;12570970;28;20109;-45
2021/08/20 03:09:18;;;;;;;33.25;24.25;;;15.20;99.90;;;;;;12573401;28;20101;-44
2021/08/20 03:15:20;;;;;;;32.13;24.00;;;15.10;99.90;;;;;;12550870;28;20051;-45
2021/08/20 03:21:22;;;;;;;33.78;22.33;;;15.20;99.90;;;;;;12570342;28;20712;-45
2021/08/20 03:27:24;;;;;;;31.23;22.58;;;15.10;99.90;;;;;;12570334;28;20489;-44
2021/08/20 03:33:26;;;;;;;30.65;21.52;;;15.00;99.90;;;;;;12570208;28;20052;-44
2021/08/20 03:39:28;;;;;;;29.38;21.33;;;15.10;99.90;;;;;;12570409;28;20279;-45
2021/08/20 03:45:29;;;;;;;28.88;21.10;;;15.10;99.90;;;;;;12513865;28;20048;-45
2021/08/20 03:51:32;;;;;;;28.13;20.98;;;15.10;99.90;;;;;;12521870;28;20049;-45
2021/08/20 03:57:37;;;;;;;29.92;20.70;;;15.10;99.90;;;;;;12518993;28;20087;-44
2021/08/20 04:03:39;;;;;;;27.42;19.92;;;15.10;99.90;;;;;;12548182;28;20048;-45
2021/08/20 04:09:41;;;;;;;31.00;20.75;;;15.20;99.90;;;;;;12571585;28;20053;-45
2021/08/20 04:15:43;;;;;;;28.52;19.73;;;15.10;99.90;;;;;;12570592;28;20105;-44
2021/08/20 04:21:51;;;;;;;30.98;20.30;;;15.10;99.90;;;;;;12553496;28;20078;-44
2021/08/20 04:27:53;;;;;;;25.70;18.65;;;15.00;99.90;;;;;;12521966;28;20370;-44
2021/08/20 04:33:55;;;;;;;26.48;19.00;;;15.10;99.90;;;;;;12552005;28;20075;-44
2021/08/20 04:39:58;;;;;;;25.33;16.92;;;15.00;99.90;;;;;;12568486;28;20048;-44
2021/08/20 04:45:59;;;;;;;26.05;17.75;;;15.00;99.90;;;;;;12568148;28;20045;-47
2021/08/20 04:52:02;;;;;;;28.45;18.77;;;15.10;99.90;;;;;;12566736;28;20053;-44
2021/08/20 04:58:03;;;;;;;23.35;16.83;;;15.10;99.90;;;;;;12570237;28;20049;-45
2021/08/20 05:04:06;;;;;;;25.92;18.83;;;15.10;99.90;;;;;;12576373;28;20163;-44
2021/08/20 05:10:11;;;;;;;27.90;17.05;;;15.00;99.90;;;;;;12577040;28;20052;-44
2021/08/20 05:16:13;;;;;;;25.88;17.65;;;15.00;99.90;;;;;;12579581;28;20052;-44
2021/08/20 05:22:15;;;;;;;27.52;17.80;;;15.00;99.90;;;;;;12579645;28;20044;-45
2021/08/20 05:28:17;;;;;;;23.65;17.48;;;15.00;99.90;;;;;;12582770;28;20044;-46
2021/08/20 05:34:20;;;;;;;22.05;17.20;;;15.00;99.90;;;;;;12576717;28;20048;-44
2021/08/20 05:40:22;;;;;;;25.70;18.40;;;15.00;99.90;;;;;;12575069;28;20487;-45
2021/08/20 05:46:24;;;;;;;25.90;18.10;;;15.10;99.90;;;;;;12578705;28;20045;-44
2021/08/20 05:52:26;;;;;;;25.45;17.85;;;15.10;99.90;;;;;;12577455;28;20730;-43
2021/08/20 05:58:28;;;;;;;25.83;17.15;;;15.30;99.90;;;;;;12580528;28;20057;-45
2021/08/20 06:04:30;;;;;;;26.02;17.20;;;15.30;99.90;;;;;;12578182;28;20125;-44
2021/08/20 06:10:32;;;;;;;27.83;18.63;;;15.60;99.90;;;;;;12579322;28;20139;-44
2021/08/20 06:16:34;;;;;;;24.13;18.67;;;15.60;99.90;;;;;;12578376;28;20057;-44
2021/08/20 06:22:36;;;;;;;24.98;18.65;;;15.70;99.90;;;;;;12575795;28;20390;-45
2021/08/20 06:28:38;;;;;;;27.10;19.52;;;15.90;99.90;;;;;;12577755;28;20066;-44
2021/08/20 06:34:40;;;;;;;26.67;19.60;;;15.90;99.90;;;;;;12579495;28;20583;-45
2021/08/20 06:40:41;;;;;;;32.03;19.83;;;15.70;99.90;;;;;;12577304;28;20060;-46
2021/08/20 06:46:45;;;;;;;27.98;19.30;;;15.80;99.90;;;;;;12575228;28;20049;-44
2021/08/20 06:52:47;;;;;;;28.00;20.38;;;15.90;99.90;;;;;;12572608;28;20048;-45
2021/08/20 06:58:50;;;;;;;26.17;20.05;;;15.90;99.90;;;;;;12574683;28;20143;-45
2021/08/20 07:04:51;;;;;;;27.05;18.52;;;16.10;99.90;;;;;;12575656;28;20056;-44
2021/08/20 07:10:54;;;;;;;25.90;18.25;;;16.20;99.90;;;;;;12569221;28;20048;-44
2021/08/20 07:16:56;;;;;;;25.88;19.30;;;16.30;99.90;;;;;;12525264;28;20507;-45
2021/08/20 07:22:58;;;;;;;26.15;18.33;;;16.00;99.90;;;;;;12523156;28;20087;-44
2021/08/20 07:29:00;;;;;;;26.45;17.65;;;16.10;99.90;;;;;;12525495;28;20451;-45
2021/08/20 07:35:03;;;;;;;22.17;15.60;;;16.40;99.90;;;;;;12508536;28;20534;-45
2021/08/20 07:41:07;;;;;;;22.17;15.95;;;16.70;99.90;;;;;;12523839;28;20048;-44
2021/08/20 07:47:09;;;;;;;21.48;15.15;;;16.80;99.90;;;;;;12523732;28;20730;-45
2021/08/20 07:53:15;;;;;;;20.98;14.63;;;16.80;99.90;;;;;;12523827;28;20128;-44
2021/08/20 07:59:17;;;;;;;23.83;13.98;;;17.10;99.90;;;;;;12525210;28;20063;-44
2021/08/20 08:05:21;;;;;;;23.42;14.70;;;17.20;99.90;;;;;;12523989;28;20412;-45
2021/08/20 08:11:23;;;;;;;18.45;13.23;;;17.40;99.90;;;;;;12525309;28;20045;-44
2021/08/20 08:17:26;;;;;;;17.73;12.00;;;17.40;99.90;;;;;;12525619;28;20048;-45
2021/08/20 08:23:28;;;;;;;17.45;12.77;;;17.60;99.90;;;;;;12525980;28;20107;-42
2021/08/20 08:29:30;;;;;;;15.15;12.20;;;17.30;99.90;;;;;;12524898;28;20453;-42
2021/08/20 08:35:33;;;;;;;19.98;14.20;;;17.60;99.90;;;;;;12525811;28;20072;-46
2021/08/20 08:41:35;;;;;;;16.70;13.38;;;17.90;99.90;;;;;;12530689;28;20057;-45
2021/08/20 08:47:37;;;;;;;19.13;13.02;;;18.20;99.90;;;;;;12533309;28;20062;-45
2021/08/20 08:53:40;;;;;;;17.85;12.40;;;18.00;99.90;;;;;;12529551;28;20037;-43
2021/08/20 08:59:42;;;;;;;17.38;11.65;;;18.10;99.90;;;;;;12531195;28;20063;-43
2021/08/20 09:05:51;;;;;;;15.77;11.57;;;18.20;99.90;;;;;;12543927;28;20162;-46
2021/08/20 09:11:58;;;;;;;17.73;11.95;;;18.50;99.90;;;;;;12529306;28;20045;-46
2021/08/20 09:18:03;;;;;;;15.93;11.48;;;18.40;99.90;;;;;;12551191;28;20052;-42
2021/08/20 09:24:36;;;;;;;13.73;10.00;;;18.10;99.90;;;;;;12526729;28;20635;-43
2021/08/20 09:30:38;;;;;;;14.60;10.30;;;18.40;99.90;;;;;;12524445;28;20489;-42
2021/08/20 09:36:40;;;;;;;15.32;9.20;;;18.70;99.90;;;;;;12512384;28;20076;-43
2021/08/20 09:42:43;;;;;;;11.32;8.73;;;19.30;99.90;;;;;;12528900;28;20052;-43
2021/08/20 09:48:53;;;;;;;11.35;9.07;;;19.50;99.90;;;;;;12530290;28;20049;-45
2021/08/20 09:54:57;;;;;;;10.77;7.70;;;19.80;99.90;;;;;;12527586;28;20091;-43
2021/08/20 10:01:04;;;;;;;10.45;7.40;;;19.70;99.90;;;;;;12526877;28;20041;-44
2021/08/20 10:07:07;;;;;;;10.20;7.22;;;19.60;99.90;;;;;;12525757;28;20138;-44
2021/08/20 10:13:16;;;;;;;11.07;7.70;;;19.70;99.90;;;;;;12525714;28;20068;-43
2021/08/20 10:19:19;;;;;;;10.27;6.93;;;19.80;99.90;;;;;;12532604;28;20060;-43
2021/08/20 10:25:21;;;;;;;9.32;7.50;;;20.20;99.90;;;;;;12522349;28;20040;-43
2021/08/20 10:31:27;;;;;;;11.88;6.25;;;20.20;99.90;;;;;;12525063;28;20132;-46
2021/08/20 10:37:31;;;;;;;12.32;6.70;;;19.90;99.90;;;;;;12544953;28;20056;-42
2021/08/20 10:43:56;;;;;;;8.40;6.68;;;20.00;99.90;;;;;;12527004;28;20076;-43
2021/08/20 10:50:12;;;;;;;;;;;20.20;99.90;;;;;;12531180;28;20542;-45
2021/08/20 10:56:33;;;;;;;10.65;7.07;;;20.10;99.90;;;;;;12526350;28;19932;-43
2021/08/20 11:02:46;;;;;;;10.82;7.45;;;19.80;99.90;;;;;;12522539;28;20057;-44
2021/08/20 11:08:48;;;;;;;8.35;6.47;;;19.70;99.90;;;;;;12526448;28;20072;-44
2021/08/20 11:14:50;;;;;;;11.60;7.65;;;19.40;99.90;;;;;;12526986;28;20594;-43
2021/08/20 11:20:52;;;;;;;16.63;8.82;;;19.50;99.90;;;;;;12519604;28;20140;-43
2021/08/20 11:27:14;;;;;;;14.52;9.02;;;19.60;99.90;;;;;;12529921;28;20045;-42
2021/08/20 11:33:20;;;;;;;12.50;8.25;;;19.50;99.90;;;;;;12527412;28;20044;-45
2021/08/20 11:39:24;;;;;;;7.25;4.40;;;19.60;99.90;;;;;;12528008;28;20064;-47
2021/08/20 11:45:26;;;;;;;3.83;2.55;;;19.70;99.90;;;;;;12527393;28;20048;-45
2021/08/20 11:51:35;;;;;;;5.20;3.92;;;20.00;99.90;;;;;;12525788;28;20056;-45
2021/08/20 11:57:38;;;;;;;7.35;4.90;;;20.20;99.90;;;;;;12525686;28;20489;-45
2021/08/20 12:03:46;;;;;;;6.70;4.93;;;20.60;99.90;;;;;;12556042;28;20052;-46
2021/08/20 12:10:02;;;;;;;7.45;5.47;;;20.50;99.90;;;;;;12561524;28;20048;-43
2021/08/20 12:16:09;;;;;;;9.10;6.97;;;20.50;99.90;;;;;;12626350;28;20055;-46
2021/08/20 12:22:12;;;;;;;;;;;20.40;99.90;;;;;;12626718;28;20604;-43
2021/08/20 12:28:19;;;;;;;7.93;5.70;;;21.00;99.90;;;;;;12627333;28;19989;-42
2021/08/20 12:34:33;;;;;;;11.35;7.90;;;21.20;99.90;;;;;;12621773;28;20043;-42
2021/08/20 12:40:56;;;;;;;11.07;6.63;;;20.90;99.90;;;;;;12617389;28;20060;-43
2021/08/20 12:47:07;;;;;;;9.05;5.10;;;20.30;99.90;;;;;;12624818;28;20155;-43
2021/08/20 12:53:10;;;;;;;10.18;6.32;;;20.10;99.90;;;;;;12598396;28;20044;-42
2021/08/20 12:59:19;;;;;;;11.60;6.38;;;20.10;99.90;;;;;;12625669;28;20117;-43
2021/08/20 13:05:22;;;;;;;12.57;6.00;;;20.30;99.90;;;;;;12586469;28;20084;-44
2021/08/20 13:11:26;;;;;;;7.07;4.60;;;20.20;99.90;;;;;;12580070;28;20385;-43
2021/08/20 13:17:28;;;;;;;6.80;4.47;;;20.10;99.90;;;;;;12584819;28;20548;-43
2021/08/20 13:23:31;;;;;;;8.40;5.13;;;20.40;99.90;;;;;;12582760;28;20654;-43
2021/08/20 13:29:34;;;;;;;7.93;4.93;;;20.70;99.90;;;;;;12590348;28;20219;-44
2021/08/20 13:35:37;;;;;;;7.63;5.03;;;21.10;99.90;;;;;;12587542;28;20219;-44
2021/08/20 13:41:40;;;;;;;8.13;5.40;;;21.20;99.90;;;;;;12585769;28;20397;-42
2021/08/20 13:47:42;;;;;;;8.57;5.45;;;21.20;99.90;;;;;;12570381;28;20056;-44
2021/08/20 13:53:45;;;;;;;12.80;6.75;;;21.00;99.90;;;;;;12585117;28;20102;-44
2021/08/20 13:59:48;;;;;;;10.53;7.33;;;21.20;99.90;;;;;;12588110;28;20063;-43
2021/08/20 14:05:50;;;;;;;10.63;6.50;;;21.10;99.90;;;;;;12581321;28;20052;-44
2021/08/20 14:11:52;;;;;;;9.60;6.53;;;21.70;99.90;;;;;;12578786;28;20044;-46
2021/08/20 14:17:54;;;;;;;11.80;7.18;;;21.60;99.90;;;;;;12563677;28;20095;-43
2021/08/20 14:23:58;;;;;;;9.47;6.30;;;21.80;99.90;;;;;;12579152;28;20053;-43
2021/08/20 14:30:01;;;;;;;;;;;21.60;99.90;;;;;;12578827;28;21035;-46
2021/08/20 14:36:03;;;;;;;9.13;5.68;;;21.40;99.90;;;;;;12581921;28;20338;-43
2021/08/20 14:42:06;;;;;;;7.45;4.70;;;21.30;99.90;;;;;;12579899;28;20059;-43
2021/08/20 14:48:08;;;;;;;9.38;5.43;;;21.10;99.90;;;;;;12579875;28;20488;-46
2021/08/20 14:54:10;;;;;;;7.93;5.72;;;21.10;99.90;;;;;;12578364;28;20048;-42
2021/08/20 15:00:13;;;;;;;9.75;6.53;;;21.30;99.90;;;;;;12578615;28;20052;-43
2021/08/20 15:06:18;;;;;;;10.47;5.67;;;21.30;99.90;;;;;;12579380;28;20688;-44
2021/08/20 15:12:25;;;;;;;7.63;5.35;;;22.00;99.90;;;;;;12580944;28;20489;-44
2021/08/20 15:18:27;;;;;;;8.07;5.10;;;22.40;99.90;;;;;;12579048;28;20139;-44
2021/08/20 15:24:36;;;;;;;7.45;5.32;;;22.60;99.90;;;;;;12590419;28;20067;-42
2021/08/20 15:30:38;;;;;;;9.35;5.55;;;23.10;99.90;;;;;;12588070;28;20715;-42
2021/08/20 15:36:40;;;;;;;9.80;4.77;;;22.80;99.90;;;;;;12583073;28;20055;-44
2021/08/20 15:42:47;;;;;;;8.05;4.95;;;22.80;99.90;;;;;;12579442;28;20044;-43
2021/08/20 15:48:50;;;;;;;6.88;5.03;;;22.70;99.90;;;;;;12579145;28;20491;-42
2021/08/20 15:54:52;;;;;;;6.00;4.10;;;22.70;99.90;;;;;;12572248;28;20514;-42
2021/08/20 16:00:55;;;;;;;4.60;3.65;;;22.10;99.90;;;;;;12581615;28;20110;-44
2021/08/20 16:07:05;;;;;;;9.00;5.35;;;21.80;99.90;;;;;;12578413;28;20052;-47
2021/08/20 16:13:08;;;;;;;10.65;6.70;;;21.50;99.90;;;;;;12573379;28;20049;-43
2021/08/20 16:19:12;;;;;;;7.35;5.18;;;21.10;99.90;;;;;;12557253;28;20513;-43
2021/08/20 16:25:15;;;;;;;7.25;5.15;;;21.10;99.90;;;;;;12576346;28;20044;-42
2021/08/20 16:31:17;;;;;;;7.65;5.28;;;21.00;99.90;;;;;;12574382;28;20102;-44
2021/08/20 16:37:20;;;;;;;7.43;5.90;;;21.00;99.90;;;;;;12573517;28;20052;-44
2021/08/20 16:43:22;;;;;;;8.20;5.07;;;20.90;99.90;;;;;;12571916;28;20051;-44
2021/08/20 16:49:24;;;;;;;8.27;6.57;;;21.10;99.90;;;;;;12572954;28;20055;-44
2021/08/20 16:55:27;;;;;;;8.50;6.32;;;21.00;99.90;;;;;;12572703;28;20093;-44
2021/08/20 17:01:29;;;;;;;8.23;6.15;;;21.00;99.90;;;;;;12580432;28;20063;-44
2021/08/20 17:07:31;;;;;;;8.27;6.15;;;21.00;99.90;;;;;;12583165;28;20094;-43
2021/08/20 17:13:33;;;;;;;7.68;5.63;;;20.80;99.90;;;;;;12581555;28;20079;-44
2021/08/20 17:19:39;;;;;;;9.55;6.22;;;20.60;99.90;;;;;;12583177;28;20137;-45
2021/08/20 17:25:42;;;;;;;9.07;6.87;;;20.60;99.90;;;;;;12583317;28;20139;-42
2021/08/20 17:31:46;;;;;;;10.40;7.77;;;20.60;99.90;;;;;;12577790;28;20044;-43
2021/08/20 17:37:48;;;;;;;;;;;20.40;99.90;;;;;;12562963;28;20087;-43
2021/08/20 17:43:50;;;;;;;12.48;9.40;;;20.20;99.90;;;;;;12579927;28;19931;-42
2021/08/20 17:49:52;;;;;;;14.60;11.30;;;19.90;99.90;;;;;;12562112;28;20083;-43
2021/08/20 17:55:54;;;;;;;12.90;10.95;;;19.80;99.90;;;;;;12578236;28;20068;-42
2021/08/20 18:01:56;;;;;;;12.40;11.10;;;19.80;99.90;;;;;;12578819;28;20056;-44
2021/08/20 18:07:58;;;;;;;12.20;10.90;;;19.70;99.90;;;;;;12584423;28;20135;-43
2021/08/20 18:14:01;;;;;;;14.90;11.90;;;19.60;99.90;;;;;;12582166;28;20048;-42
2021/08/20 18:20:04;;;;;;;14.53;11.50;;;19.50;99.90;;;;;;12576065;28;20113;-43
2021/08/20 18:26:06;;;;;;;10.88;8.90;;;19.40;99.90;;;;;;12583129;28;20059;-45
2021/08/20 18:32:08;;;;;;;14.30;9.95;;;19.40;99.90;;;;;;12573393;28;20040;-44
2021/08/20 18:38:10;;;;;;;12.40;11.02;;;19.30;99.90;;;;;;12580731;28;20063;-42
2021/08/20 18:44:12;;;;;;;13.00;10.50;;;19.30;99.90;;;;;;12579097;28;20056;-43
2021/08/20 18:50:14;;;;;;;12.27;9.68;;;19.20;99.90;;;;;;12571659;28;20088;-43
2021/08/20 18:56:16;;;;;;;11.10;10.00;;;19.10;99.90;;;;;;12578314;28;20076;-45
2021/08/20 19:02:18;;;;;;;12.57;11.20;;;19.00;99.90;;;;;;12568038;28;20549;-46
2021/08/20 19:08:20;;;;;;;14.05;10.85;;;19.00;99.90;;;;;;12571629;28;20590;-44
2021/08/20 19:14:22;;;;;;;11.75;10.55;;;19.10;99.90;;;;;;12568762;28;20097;-42
2021/08/20 19:20:24;;;;;;;11.32;10.05;;;19.30;99.90;;;;;;12571623;28;20501;-42
2021/08/20 19:26:26;;;;;;;10.32;9.07;;;19.40;99.90;;;;;;12570547;28;20041;-45
2021/08/20 19:32:28;;;;;;;9.65;8.20;;;19.50;99.90;;;;;;12570921;28;20052;-45
2021/08/20 19:38:30;;;;;;;11.50;9.25;;;19.50;99.90;;;;;;12569401;28;20088;-43
2021/08/20 19:44:34;;;;;;;11.38;10.05;;;19.50;99.90;;;;;;12567953;28;20052;-43
2021/08/20 19:50:36;;;;;;;9.90;8.88;;;19.00;99.90;;;;;;12571300;28;20056;-42
2021/08/20 19:56:38;;;;;;;11.30;9.75;;;18.90;99.90;;;;;;12568501;28;20431;-42
2021/08/20 20:02:40;;;;;;;13.13;10.00;;;18.70;99.90;;;;;;12571688;28;20147;-43
2021/08/20 20:08:43;;;;;;;11.25;9.98;;;18.50;99.90;;;;;;12578675;28;20139;-44
2021/08/20 20:14:45;;;;;;;11.63;10.43;;;18.30;99.90;;;;;;12573889;28;20488;-43
2021/08/20 20:20:47;;;;;;;12.32;9.45;;;18.40;99.90;;;;;;12577001;28;20049;-45
2021/08/20 20:26:49;;;;;;;12.65;11.35;;;18.50;99.90;;;;;;12573080;28;20525;-42
2021/08/20 20:32:51;;;;;;;12.70;11.40;;;18.40;99.90;;;;;;12581151;28;20729;-45
2021/08/20 20:38:53;;;;;;;13.85;11.25;;;18.40;99.90;;;;;;12586351;28;20052;-43
2021/08/20 20:44:55;;;;;;;12.63;11.32;;;18.10;99.90;;;;;;12585545;28;20077;-43
2021/08/20 20:50:57;;;;;;;13.45;12.13;;;18.00;99.90;;;;;;12586205;28;20051;-42
2021/08/20 20:56:58;;;;;;;14.40;11.90;;;17.80;99.90;;;;;;12582520;28;20097;-43
2021/08/20 21:03:00;;;;;;;12.73;10.43;;;17.80;99.90;;;;;;12578072;28;20059;-44
2021/08/20 21:09:02;;;;;;;12.43;11.13;;;17.70;99.90;;;;;;12579437;28;20544;-42
2021/08/20 21:15:05;;;;;;;13.65;11.82;;;17.90;99.90;;;;;;12591786;28;20044;-45
2021/08/20 21:21:08;;;;;;;16.88;13.50;;;18.10;99.90;;;;;;12581880;28;20102;-43
2021/08/20 21:27:09;;;;;;;18.75;16.13;;;18.10;99.90;;;;;;12589815;28;20151;-43
2021/08/20 21:33:11;;;;;;;20.67;17.30;;;17.90;99.90;;;;;;12582884;28;20044;-42
2021/08/20 21:39:13;;;;;;;27.02;19.20;;;17.70;99.90;;;;;;12582695;28;20175;-43
2021/08/20 21:45:17;;;;;;;22.98;19.83;;;17.50;99.90;;;;;;12581311;28;20064;-45
2021/08/20 21:51:18;;;;;;;28.63;18.70;;;17.30;99.90;;;;;;12580294;28;20127;-42
2021/08/20 21:57:20;;;;;;;25.67;20.30;;;17.20;99.90;;;;;;12582355;28;20056;-43
2021/08/20 22:03:22;;;;;;;25.95;21.45;;;17.20;99.90;;;;;;12576987;28;20080;-42
2021/08/20 22:09:24;;;;;;;24.27;19.25;;;17.10;99.90;;;;;;12576187;28;20040;-44
2021/08/20 22:15:27;;;;;;;26.55;21.70;;;17.00;99.90;;;;;;12573317;28;20048;-43
2021/08/20 22:21:30;;;;;;;25.80;21.08;;;17.00;99.90;;;;;;12576239;28;20113;-43
2021/08/20 22:27:32;;;;;;;23.58;20.17;;;16.90;99.90;;;;;;12575229;28;20200;-43
2021/08/20 22:33:33;;;;;;;23.77;19.35;;;17.00;99.90;;;;;;12573250;28;20044;-43
2021/08/20 22:39:35;;;;;;;25.13;19.88;;;17.10;99.90;;;;;;12568133;28;20602;-43
2021/08/20 22:45:37;;;;;;;24.23;19.30;;;17.20;99.90;;;;;;12569082;28;20069;-42
2021/08/20 22:51:40;;;;;;;24.45;18.23;;;17.10;99.90;;;;;;12570264;28;20131;-43
2021/08/20 22:57:43;;;;;;;22.33;18.13;;;17.10;99.90;;;;;;12574740;28;20097;-44
2021/08/20 23:03:45;;;;;;;19.37;16.33;;;17.20;99.90;;;;;;12569995;28;20041;-42
2021/08/20 23:09:47;;;;;;;19.23;17.05;;;17.30;99.90;;;;;;12525206;28;20049;-42
2021/08/20 23:15:49;;;;;;;18.80;15.00;;;17.30;99.90;;;;;;12517565;28;20037;-43
2021/08/20 23:21:51;;;;;;;18.52;14.75;;;17.30;99.90;;;;;;12520903;28;20044;-45
2021/08/20 23:27:52;;;;;;;16.45;13.88;;;17.20;99.90;;;;;;12519419;28;20086;-43
2021/08/20 23:33:54;;;;;;;16.27;14.45;;;17.20;99.90;;;;;;12517581;28;20071;-43
2021/08/20 23:39:56;;;;;;;17.92;14.27;;;17.00;99.90;;;;;;12521259;28;20094;-43
2021/08/20 23:45:58;;;;;;;19.35;12.85;;;16.90;99.90;;;;;;12521034;28;20174;-42
2021/08/20 23:52:00;;;;;;;21.70;14.02;;;16.90;99.90;;;;;;12517557;28;20057;-42
2021/08/20 23:58:02;;;;;;;14.63;12.75;;;16.70;99.90;;;;;;12518271;28;20048;-43
